sensor_id;sensor_type;location;lat;lon;timestamp;temperature;humidity
7292;DHT22;3687;47.648;8.204;2022-07-29T00:00:39;25.70;77.10
7292;DHT22;3687;47.648;8.204;2022-07-29T00:03:05;25.80;77.20
7292;DHT22;3687;47.648;8.204;2022-07-29T00:05:30;25.60;77.50
7292;DHT22;3687;47.648;8.204;2022-07-29T00:07:56;25.70;77.40
7292;DHT22;3687;47.648;8.204;2022-07-29T00:10:22;25.70;77.40
7292;DHT22;3687;47.648;8.204;2022-07-29T00:12:47;25.40;77.90
7292;DHT22;3687;47.648;8.204;2022-07-29T00:15:13;25.30;78.10
7292;DHT22;3687;47.648;8.204;2022-07-29T00:17:38;25.00;79.20
7292;DHT22;3687;47.648;8.204;2022-07-29T00:20:05;24.80;79.80
7292;DHT22;3687;47.648;8.204;2022-07-29T00:22:30;24.90;79.60
7292;DHT22;3687;47.648;8.204;2022-07-29T00:24:56;25.10;79.20
7292;DHT22;3687;47.648;8.204;2022-07-29T00:27:22;25.20;78.80
7292;DHT22;3687;47.648;8.204;2022-07-29T00:29:47;25.30;78.50
7292;DHT22;3687;47.648;8.204;2022-07-29T00:32:13;25.20;78.50
7292;DHT22;3687;47.648;8.204;2022-07-29T00:34:39;25.20;78.60
7292;DHT22;3687;47.648;8.204;2022-07-29T00:37:23;25.10;78.90
7292;DHT22;3687;47.648;8.204;2022-07-29T00:39:49;24.90;79.20
7292;DHT22;3687;47.648;8.204;2022-07-29T00:42:14;24.80;79.80
7292;DHT22;3687;47.648;8.204;2022-07-29T00:44:42;24.80;79.90
7292;DHT22;3687;47.648;8.204;2022-07-29T00:47:11;24.90;79.50
7292;DHT22;3687;47.648;8.204;2022-07-29T00:49:39;25.00;79.40
7292;DHT22;3687;47.648;8.204;2022-07-29T00:52:05;25.00;79.20
7292;DHT22;3687;47.648;8.204;2022-07-29T00:54:32;25.00;79.30
7292;DHT22;3687;47.648;8.204;2022-07-29T00:56:59;25.00;79.40
7292;DHT22;3687;47.648;8.204;2022-07-29T00:59:26;24.90;79.50
7292;DHT22;3687;47.648;8.204;2022-07-29T01:01:52;24.90;79.40
7292;DHT22;3687;47.648;8.204;2022-07-29T01:04:19;24.90;79.70
7292;DHT22;3687;47.648;8.204;2022-07-29T01:06:45;24.80;79.80
7292;DHT22;3687;47.648;8.204;2022-07-29T01:09:10;25.00;79.60
7292;DHT22;3687;47.648;8.204;2022-07-29T01:11:37;25.10;79.20
7292;DHT22;3687;47.648;8.204;2022-07-29T01:14:03;25.20;79.00
7292;DHT22;3687;47.648;8.204;2022-07-29T01:16:42;25.20;78.90
7292;DHT22;3687;47.648;8.204;2022-07-29T01:21:59;25.30;78.60
7292;DHT22;3687;47.648;8.204;2022-07-29T01:30:05;25.20;78.80
7292;DHT22;3687;47.648;8.204;2022-07-29T01:32:36;24.80;79.30
7292;DHT22;3687;47.648;8.204;2022-07-29T01:35:08;24.60;80.00
7292;DHT22;3687;47.648;8.204;2022-07-29T01:37:57;24.50;80.30
7292;DHT22;3687;47.648;8.204;2022-07-29T01:43:49;24.10;81.40
7292;DHT22;3687;47.648;8.204;2022-07-29T01:46:40;24.20;81.10
7292;DHT22;3687;47.648;8.204;2022-07-29T01:49:11;24.40;80.80
7292;DHT22;3687;47.648;8.204;2022-07-29T01:51:46;24.60;80.30
7292;DHT22;3687;47.648;8.204;2022-07-29T01:54:18;24.70;80.00
7292;DHT22;3687;47.648;8.204;2022-07-29T01:56:48;24.80;79.80
7292;DHT22;3687;47.648;8.204;2022-07-29T01:59:16;24.90;79.60
7292;DHT22;3687;47.648;8.204;2022-07-29T02:01:43;24.80;79.50
7292;DHT22;3687;47.648;8.204;2022-07-29T02:04:11;24.70;79.70
7292;DHT22;3687;47.648;8.204;2022-07-29T02:06:38;24.60;80.00
7292;DHT22;3687;47.648;8.204;2022-07-29T02:09:07;24.30;80.70
7292;DHT22;3687;47.648;8.204;2022-07-29T02:11:34;24.30;81.20
7292;DHT22;3687;47.648;8.204;2022-07-29T02:14:01;24.20;81.40
7292;DHT22;3687;47.648;8.204;2022-07-29T02:16:30;24.30;81.30
7292;DHT22;3687;47.648;8.204;2022-07-29T02:19:00;24.50;81.20
7292;DHT22;3687;47.648;8.204;2022-07-29T02:21:27;24.40;81.20
7292;DHT22;3687;47.648;8.204;2022-07-29T02:23:55;24.30;81.40
7292;DHT22;3687;47.648;8.204;2022-07-29T02:26:23;24.30;81.70
7292;DHT22;3687;47.648;8.204;2022-07-29T02:28:52;24.30;81.80
7292;DHT22;3687;47.648;8.204;2022-07-29T02:31:23;24.50;81.40
7292;DHT22;3687;47.648;8.204;2022-07-29T02:33:49;24.50;81.40
7292;DHT22;3687;47.648;8.204;2022-07-29T02:36:17;24.60;81.10
7292;DHT22;3687;47.648;8.204;2022-07-29T02:38:45;24.60;81.00
7292;DHT22;3687;47.648;8.204;2022-07-29T02:41:27;24.50;81.00
7292;DHT22;3687;47.648;8.204;2022-07-29T02:43:57;24.50;81.40
7292;DHT22;3687;47.648;8.204;2022-07-29T02:46:31;24.50;81.30
7292;DHT22;3687;47.648;8.204;2022-07-29T02:51:43;24.30;81.90
7292;DHT22;3687;47.648;8.204;2022-07-29T02:54:14;24.20;82.00
7292;DHT22;3687;47.648;8.204;2022-07-29T02:56:44;24.30;81.90
7292;DHT22;3687;47.648;8.204;2022-07-29T02:59:12;24.30;81.90
7292;DHT22;3687;47.648;8.204;2022-07-29T03:01:41;24.50;81.70
7292;DHT22;3687;47.648;8.204;2022-07-29T03:04:08;24.30;81.90
7292;DHT22;3687;47.648;8.204;2022-07-29T03:06:35;24.30;82.00
7292;DHT22;3687;47.648;8.204;2022-07-29T03:09:03;24.40;81.80
7292;DHT22;3687;47.648;8.204;2022-07-29T03:11:29;24.40;82.00
7292;DHT22;3687;47.648;8.204;2022-07-29T03:13:55;24.40;81.90
7292;DHT22;3687;47.648;8.204;2022-07-29T03:16:21;24.30;82.10
7292;DHT22;3687;47.648;8.204;2022-07-29T03:18:49;24.20;82.50
7292;DHT22;3687;47.648;8.204;2022-07-29T03:21:15;24.30;82.30
7292;DHT22;3687;47.648;8.204;2022-07-29T03:23:45;24.30;82.50
7292;DHT22;3687;47.648;8.204;2022-07-29T03:26:11;24.40;82.20
7292;DHT22;3687;47.648;8.204;2022-07-29T03:28:37;24.50;82.00
7292;DHT22;3687;47.648;8.204;2022-07-29T03:31:02;24.60;81.90
7292;DHT22;3687;47.648;8.204;2022-07-29T03:33:28;24.60;81.70
7292;DHT22;3687;47.648;8.204;2022-07-29T03:35:55;24.50;82.00
7292;DHT22;3687;47.648;8.204;2022-07-29T03:38:23;24.50;81.90
7292;DHT22;3687;47.648;8.204;2022-07-29T03:40:54;24.60;81.80
7292;DHT22;3687;47.648;8.204;2022-07-29T03:43:22;24.70;81.70
7292;DHT22;3687;47.648;8.204;2022-07-29T03:45:51;24.70;81.70
7292;DHT22;3687;47.648;8.204;2022-07-29T03:48:20;24.60;81.90
7292;DHT22;3687;47.648;8.204;2022-07-29T03:50:47;24.60;82.10
7292;DHT22;3687;47.648;8.204;2022-07-29T03:53:13;24.60;81.90
7292;DHT22;3687;47.648;8.204;2022-07-29T03:55:45;24.60;81.80
7292;DHT22;3687;47.648;8.204;2022-07-29T03:58:13;24.70;81.90
7292;DHT22;3687;47.648;8.204;2022-07-29T04:00:40;24.70;81.90
7292;DHT22;3687;47.648;8.204;2022-07-29T04:03:06;24.60;81.90
7292;DHT22;3687;47.648;8.204;2022-07-29T04:05:32;24.70;81.80
7292;DHT22;3687;47.648;8.204;2022-07-29T04:07:58;24.70;81.70
7292;DHT22;3687;47.648;8.204;2022-07-29T04:10:23;24.70;81.70
7292;DHT22;3687;47.648;8.204;2022-07-29T04:12:49;24.70;81.70
7292;DHT22;3687;47.648;8.204;2022-07-29T04:15:15;24.70;81.60
7292;DHT22;3687;47.648;8.204;2022-07-29T04:17:41;24.70;81.70
7292;DHT22;3687;47.648;8.204;2022-07-29T04:20:07;24.70;81.60
7292;DHT22;3687;47.648;8.204;2022-07-29T04:22:33;24.70;81.60
7292;DHT22;3687;47.648;8.204;2022-07-29T04:24:59;24.70;81.60
7292;DHT22;3687;47.648;8.204;2022-07-29T04:27:25;24.70;81.60
7292;DHT22;3687;47.648;8.204;2022-07-29T04:29:50;24.70;81.60
7292;DHT22;3687;47.648;8.204;2022-07-29T04:32:16;24.70;81.70
7292;DHT22;3687;47.648;8.204;2022-07-29T04:34:42;24.70;81.70
7292;DHT22;3687;47.648;8.204;2022-07-29T04:37:07;24.70;81.70
7292;DHT22;3687;47.648;8.204;2022-07-29T04:39:34;24.70;81.80
7292;DHT22;3687;47.648;8.204;2022-07-29T04:41:59;24.70;81.80
7292;DHT22;3687;47.648;8.204;2022-07-29T04:44:25;24.60;81.80
7292;DHT22;3687;47.648;8.204;2022-07-29T04:46:51;24.50;81.90
7292;DHT22;3687;47.648;8.204;2022-07-29T04:49:17;24.50;82.00
7292;DHT22;3687;47.648;8.204;2022-07-29T04:51:42;24.50;81.90
7292;DHT22;3687;47.648;8.204;2022-07-29T04:54:08;24.50;81.80
7292;DHT22;3687;47.648;8.204;2022-07-29T04:56:33;24.60;81.90
7292;DHT22;3687;47.648;8.204;2022-07-29T04:58:59;24.60;82.00
7292;DHT22;3687;47.648;8.204;2022-07-29T05:01:24;24.60;81.90
7292;DHT22;3687;47.648;8.204;2022-07-29T05:03:50;24.50;82.00
7292;DHT22;3687;47.648;8.204;2022-07-29T05:06:15;24.60;82.10
7292;DHT22;3687;47.648;8.204;2022-07-29T05:08:41;24.60;82.10
7292;DHT22;3687;47.648;8.204;2022-07-29T05:11:07;24.60;82.00
7292;DHT22;3687;47.648;8.204;2022-07-29T05:13:32;24.70;82.20
7292;DHT22;3687;47.648;8.204;2022-07-29T05:15:58;24.70;82.30
7292;DHT22;3687;47.648;8.204;2022-07-29T05:18:25;24.60;82.20
7292;DHT22;3687;47.648;8.204;2022-07-29T05:20:51;24.70;82.40
7292;DHT22;3687;47.648;8.204;2022-07-29T05:23:17;24.60;82.30
7292;DHT22;3687;47.648;8.204;2022-07-29T05:25:43;24.60;82.30
7292;DHT22;3687;47.648;8.204;2022-07-29T05:28:08;24.50;82.50
7292;DHT22;3687;47.648;8.204;2022-07-29T05:30:34;24.50;82.60
7292;DHT22;3687;47.648;8.204;2022-07-29T05:33:00;24.50;82.90
7292;DHT22;3687;47.648;8.204;2022-07-29T05:35:25;24.50;82.90
7292;DHT22;3687;47.648;8.204;2022-07-29T05:37:51;24.30;83.30
7292;DHT22;3687;47.648;8.204;2022-07-29T05:40:16;24.30;83.30
7292;DHT22;3687;47.648;8.204;2022-07-29T05:42:42;24.40;83.10
7292;DHT22;3687;47.648;8.204;2022-07-29T05:45:08;24.30;83.50
7292;DHT22;3687;47.648;8.204;2022-07-29T05:47:33;24.00;84.20
7292;DHT22;3687;47.648;8.204;2022-07-29T05:49:59;23.90;84.50
7292;DHT22;3687;47.648;8.204;2022-07-29T05:52:25;23.90;84.40
7292;DHT22;3687;47.648;8.204;2022-07-29T05:54:50;24.00;84.40
7292;DHT22;3687;47.648;8.204;2022-07-29T05:57:21;24.00;84.50
7292;DHT22;3687;47.648;8.204;2022-07-29T05:59:48;23.80;84.80
7292;DHT22;3687;47.648;8.204;2022-07-29T06:02:14;23.70;84.90
7292;DHT22;3687;47.648;8.204;2022-07-29T06:04:39;23.70;85.00
7292;DHT22;3687;47.648;8.204;2022-07-29T06:07:05;23.60;85.00
7292;DHT22;3687;47.648;8.204;2022-07-29T06:09:31;23.60;85.30
7292;DHT22;3687;47.648;8.204;2022-07-29T06:11:57;23.60;85.40
7292;DHT22;3687;47.648;8.204;2022-07-29T06:14:23;23.60;85.20
7292;DHT22;3687;47.648;8.204;2022-07-29T06:16:49;23.80;84.90
7292;DHT22;3687;47.648;8.204;2022-07-29T06:19:14;23.90;84.60
7292;DHT22;3687;47.648;8.204;2022-07-29T06:21:43;23.90;84.50
7292;DHT22;3687;47.648;8.204;2022-07-29T06:24:11;24.00;84.30
7292;DHT22;3687;47.648;8.204;2022-07-29T06:26:38;24.20;84.10
7292;DHT22;3687;47.648;8.204;2022-07-29T06:29:03;24.30;83.80
7292;DHT22;3687;47.648;8.204;2022-07-29T06:31:29;24.30;83.70
7292;DHT22;3687;47.648;8.204;2022-07-29T06:33:54;24.20;83.90
7292;DHT22;3687;47.648;8.204;2022-07-29T06:36:20;24.10;84.20
7292;DHT22;3687;47.648;8.204;2022-07-29T06:38:46;24.00;84.60
7292;DHT22;3687;47.648;8.204;2022-07-29T06:41:11;23.90;85.00
7292;DHT22;3687;47.648;8.204;2022-07-29T06:43:42;23.80;85.10
7292;DHT22;3687;47.648;8.204;2022-07-29T06:46:11;23.90;85.10
7292;DHT22;3687;47.648;8.204;2022-07-29T06:48:39;23.80;85.30
7292;DHT22;3687;47.648;8.204;2022-07-29T06:51:05;23.70;85.70
7292;DHT22;3687;47.648;8.204;2022-07-29T06:53:32;23.70;85.90
7292;DHT22;3687;47.648;8.204;2022-07-29T06:55:59;23.70;86.10
7292;DHT22;3687;47.648;8.204;2022-07-29T06:58:26;23.60;86.20
7292;DHT22;3687;47.648;8.204;2022-07-29T07:00:51;23.60;86.20
7292;DHT22;3687;47.648;8.204;2022-07-29T07:03:18;23.60;86.60
7292;DHT22;3687;47.648;8.204;2022-07-29T07:05:44;23.70;86.40
7292;DHT22;3687;47.648;8.204;2022-07-29T07:08:11;23.80;86.30
7292;DHT22;3687;47.648;8.204;2022-07-29T07:10:37;23.80;86.30
7292;DHT22;3687;47.648;8.204;2022-07-29T07:13:04;23.90;86.00
7292;DHT22;3687;47.648;8.204;2022-07-29T07:15:30;24.00;86.10
7292;DHT22;3687;47.648;8.204;2022-07-29T07:17:56;23.90;86.30
7292;DHT22;3687;47.648;8.204;2022-07-29T07:20:23;23.90;86.40
7292;DHT22;3687;47.648;8.204;2022-07-29T07:22:48;23.90;86.40
7292;DHT22;3687;47.648;8.204;2022-07-29T07:25:14;23.90;86.30
7292;DHT22;3687;47.648;8.204;2022-07-29T07:27:39;23.90;86.40
7292;DHT22;3687;47.648;8.204;2022-07-29T07:30:06;23.90;86.40
7292;DHT22;3687;47.648;8.204;2022-07-29T07:32:33;23.90;86.30
7292;DHT22;3687;47.648;8.204;2022-07-29T07:34:58;23.90;86.50
7292;DHT22;3687;47.648;8.204;2022-07-29T07:37:25;23.90;86.60
7292;DHT22;3687;47.648;8.204;2022-07-29T07:39:51;23.90;86.80
7292;DHT22;3687;47.648;8.204;2022-07-29T07:42:17;23.90;86.60
7292;DHT22;3687;47.648;8.204;2022-07-29T07:44:43;24.00;86.50
7292;DHT22;3687;47.648;8.204;2022-07-29T07:47:11;24.00;86.40
7292;DHT22;3687;47.648;8.204;2022-07-29T07:49:37;24.00;86.10
7292;DHT22;3687;47.648;8.204;2022-07-29T07:52:02;24.10;86.00
7292;DHT22;3687;47.648;8.204;2022-07-29T07:54:28;24.20;85.70
7292;DHT22;3687;47.648;8.204;2022-07-29T07:56:54;24.20;85.90
7292;DHT22;3687;47.648;8.204;2022-07-29T07:59:45;24.20;85.80
7292;DHT22;3687;47.648;8.204;2022-07-29T08:02:11;24.20;86.30
7292;DHT22;3687;47.648;8.204;2022-07-29T08:04:37;24.20;86.20
7292;DHT22;3687;47.648;8.204;2022-07-29T08:07:06;24.30;86.30
7292;DHT22;3687;47.648;8.204;2022-07-29T08:09:31;24.20;86.40
7292;DHT22;3687;47.648;8.204;2022-07-29T08:11:58;24.20;86.20
7292;DHT22;3687;47.648;8.204;2022-07-29T08:14:24;24.20;86.40
7292;DHT22;3687;47.648;8.204;2022-07-29T08:16:50;24.20;86.80
7292;DHT22;3687;47.648;8.204;2022-07-29T08:19:16;24.20;87.30
7292;DHT22;3687;47.648;8.204;2022-07-29T08:21:42;24.10;87.60
7292;DHT22;3687;47.648;8.204;2022-07-29T08:24:07;24.10;87.90
7292;DHT22;3687;47.648;8.204;2022-07-29T08:26:51;24.10;88.00
7292;DHT22;3687;47.648;8.204;2022-07-29T08:29:17;24.10;88.20
7292;DHT22;3687;47.648;8.204;2022-07-29T08:31:43;24.00;88.50
7292;DHT22;3687;47.648;8.204;2022-07-29T08:34:08;24.00;88.60
7292;DHT22;3687;47.648;8.204;2022-07-29T08:36:34;24.00;88.80
7292;DHT22;3687;47.648;8.204;2022-07-29T08:39:00;24.00;89.10
7292;DHT22;3687;47.648;8.204;2022-07-29T08:41:27;24.00;89.20
7292;DHT22;3687;47.648;8.204;2022-07-29T08:43:52;24.00;89.10
7292;DHT22;3687;47.648;8.204;2022-07-29T08:46:19;24.00;89.00
7292;DHT22;3687;47.648;8.204;2022-07-29T08:48:46;24.00;88.90
7292;DHT22;3687;47.648;8.204;2022-07-29T08:51:17;24.00;89.10
7292;DHT22;3687;47.648;8.204;2022-07-29T08:53:45;24.00;89.10
7292;DHT22;3687;47.648;8.204;2022-07-29T08:56:14;24.00;89.00
7292;DHT22;3687;47.648;8.204;2022-07-29T08:58:42;24.10;89.40
7292;DHT22;3687;47.648;8.204;2022-07-29T09:01:08;24.00;90.20
7292;DHT22;3687;47.648;8.204;2022-07-29T09:03:37;24.00;90.00
7292;DHT22;3687;47.648;8.204;2022-07-29T09:06:03;23.90;89.90
7292;DHT22;3687;47.648;8.204;2022-07-29T09:08:32;23.90;90.00
7292;DHT22;3687;47.648;8.204;2022-07-29T09:10:58;24.00;89.90
7292;DHT22;3687;47.648;8.204;2022-07-29T09:13:25;24.00;89.60
7292;DHT22;3687;47.648;8.204;2022-07-29T09:15:51;24.00;89.50
7292;DHT22;3687;47.648;8.204;2022-07-29T09:18:46;24.00;89.70
7292;DHT22;3687;47.648;8.204;2022-07-29T09:21:14;24.10;89.70
7292;DHT22;3687;47.648;8.204;2022-07-29T09:24:12;24.10;89.40
7292;DHT22;3687;47.648;8.204;2022-07-29T09:26:40;24.20;89.40
7292;DHT22;3687;47.648;8.204;2022-07-29T09:29:11;24.20;89.30
7292;DHT22;3687;47.648;8.204;2022-07-29T09:31:39;24.20;89.40
7292;DHT22;3687;47.648;8.204;2022-07-29T09:34:06;24.20;89.40
7292;DHT22;3687;47.648;8.204;2022-07-29T09:36:39;24.20;89.40
7292;DHT22;3687;47.648;8.204;2022-07-29T09:39:05;24.30;89.40
7292;DHT22;3687;47.648;8.204;2022-07-29T09:41:50;24.30;89.30
7292;DHT22;3687;47.648;8.204;2022-07-29T09:44:18;24.40;89.30
7292;DHT22;3687;47.648;8.204;2022-07-29T09:47:01;24.40;89.20
7292;DHT22;3687;47.648;8.204;2022-07-29T09:50:13;24.50;89.10
7292;DHT22;3687;47.648;8.204;2022-07-29T09:52:20;24.60;88.90
7292;DHT22;3687;47.648;8.204;2022-07-29T09:54:46;24.70;88.60
7292;DHT22;3687;47.648;8.204;2022-07-29T09:57:24;24.80;88.30
7292;DHT22;3687;47.648;8.204;2022-07-29T10:00:11;24.90;87.90
7292;DHT22;3687;47.648;8.204;2022-07-29T10:02:39;24.90;87.90
7292;DHT22;3687;47.648;8.204;2022-07-29T10:05:15;24.90;87.90
7292;DHT22;3687;47.648;8.204;2022-07-29T10:07:54;24.90;87.80
7292;DHT22;3687;47.648;8.204;2022-07-29T10:10:21;24.90;87.70
7292;DHT22;3687;47.648;8.204;2022-07-29T10:15:22;24.90;87.70
7292;DHT22;3687;47.648;8.204;2022-07-29T10:17:48;25.00;87.80
7292;DHT22;3687;47.648;8.204;2022-07-29T10:20:15;25.00;87.90
7292;DHT22;3687;47.648;8.204;2022-07-29T10:22:41;25.00;87.90
7292;DHT22;3687;47.648;8.204;2022-07-29T10:25:08;25.10;87.90
7292;DHT22;3687;47.648;8.204;2022-07-29T10:27:35;25.20;87.70
7292;DHT22;3687;47.648;8.204;2022-07-29T10:30:01;25.10;87.50
7292;DHT22;3687;47.648;8.204;2022-07-29T10:43:44;25.30;86.40
7292;DHT22;3687;47.648;8.204;2022-07-29T10:46:11;25.30;86.40
7292;DHT22;3687;47.648;8.204;2022-07-29T10:49:15;25.20;86.30
7292;DHT22;3687;47.648;8.204;2022-07-29T10:52:00;25.20;86.30
7292;DHT22;3687;47.648;8.204;2022-07-29T10:54:36;25.30;86.10
7292;DHT22;3687;47.648;8.204;2022-07-29T10:59:48;25.40;85.80
7292;DHT22;3687;47.648;8.204;2022-07-29T11:02:41;25.40;85.60
7292;DHT22;3687;47.648;8.204;2022-07-29T11:05:12;25.50;85.10
7292;DHT22;3687;47.648;8.204;2022-07-29T11:07:40;25.50;85.00
7292;DHT22;3687;47.648;8.204;2022-07-29T11:10:25;25.50;84.60
7292;DHT22;3687;47.648;8.204;2022-07-29T11:12:50;25.50;84.00
7292;DHT22;3687;47.648;8.204;2022-07-29T11:15:21;25.60;83.50
7292;DHT22;3687;47.648;8.204;2022-07-29T11:20:36;25.60;81.80
7292;DHT22;3687;47.648;8.204;2022-07-29T11:23:30;25.60;80.70
7292;DHT22;3687;47.648;8.204;2022-07-29T11:31:38;25.70;78.80
7292;DHT22;3687;47.648;8.204;2022-07-29T11:34:29;25.70;77.70
7292;DHT22;3687;47.648;8.204;2022-07-29T11:45:00;25.70;74.90
7292;DHT22;3687;47.648;8.204;2022-07-29T11:47:28;25.60;73.50
7292;DHT22;3687;47.648;8.204;2022-07-29T11:49:55;25.60;73.20
7292;DHT22;3687;47.648;8.204;2022-07-29T11:52:22;25.60;73.20
7292;DHT22;3687;47.648;8.204;2022-07-29T11:54:50;25.60;72.00
7292;DHT22;3687;47.648;8.204;2022-07-29T11:57:17;25.60;72.30
7292;DHT22;3687;47.648;8.204;2022-07-29T11:59:44;25.60;72.30
7292;DHT22;3687;47.648;8.204;2022-07-29T12:02:11;25.60;72.40
7292;DHT22;3687;47.648;8.204;2022-07-29T12:04:56;25.60;72.30
7292;DHT22;3687;47.648;8.204;2022-07-29T12:07:33;25.70;72.20
7292;DHT22;3687;47.648;8.204;2022-07-29T12:10:00;25.70;71.90
7292;DHT22;3687;47.648;8.204;2022-07-29T12:12:26;25.60;72.10
7292;DHT22;3687;47.648;8.204;2022-07-29T12:14:52;25.70;72.10
7292;DHT22;3687;47.648;8.204;2022-07-29T12:17:27;25.70;72.10
7292;DHT22;3687;47.648;8.204;2022-07-29T12:19:54;25.70;71.80
7292;DHT22;3687;47.648;8.204;2022-07-29T12:22:37;25.70;72.50
7292;DHT22;3687;47.648;8.204;2022-07-29T12:25:07;25.70;71.70
7292;DHT22;3687;47.648;8.204;2022-07-29T12:27:33;25.70;71.80
7292;DHT22;3687;47.648;8.204;2022-07-29T12:30:05;25.70;72.00
7292;DHT22;3687;47.648;8.204;2022-07-29T12:32:36;25.70;72.00
7292;DHT22;3687;47.648;8.204;2022-07-29T12:35:10;25.70;72.20
7292;DHT22;3687;47.648;8.204;2022-07-29T12:37:38;25.70;72.30
7292;DHT22;3687;47.648;8.204;2022-07-29T12:40:05;25.70;72.50
7292;DHT22;3687;47.648;8.204;2022-07-29T12:42:33;25.70;72.70
7292;DHT22;3687;47.648;8.204;2022-07-29T12:44:59;25.70;72.90
7292;DHT22;3687;47.648;8.204;2022-07-29T12:47:25;25.60;73.20
7292;DHT22;3687;47.648;8.204;2022-07-29T12:50:10;25.60;73.30
7292;DHT22;3687;47.648;8.204;2022-07-29T12:52:36;25.60;73.20
7292;DHT22;3687;47.648;8.204;2022-07-29T12:55:03;25.60;73.00
7292;DHT22;3687;47.648;8.204;2022-07-29T12:57:29;25.60;72.60
7292;DHT22;3687;47.648;8.204;2022-07-29T13:00:10;25.60;72.30
7292;DHT22;3687;47.648;8.204;2022-07-29T13:02:36;25.60;71.70
7292;DHT22;3687;47.648;8.204;2022-07-29T13:05:03;25.50;71.60
7292;DHT22;3687;47.648;8.204;2022-07-29T13:07:31;25.50;71.90
7292;DHT22;3687;47.648;8.204;2022-07-29T13:10:18;25.50;70.80
7292;DHT22;3687;47.648;8.204;2022-07-29T13:13:07;25.50;70.20
7292;DHT22;3687;47.648;8.204;2022-07-29T13:15:35;25.50;70.10
7292;DHT22;3687;47.648;8.204;2022-07-29T13:18:00;25.50;70.20
7292;DHT22;3687;47.648;8.204;2022-07-29T13:20:28;25.40;70.20
7292;DHT22;3687;47.648;8.204;2022-07-29T13:22:58;25.40;70.00
7292;DHT22;3687;47.648;8.204;2022-07-29T13:25:27;25.40;70.10
7292;DHT22;3687;47.648;8.204;2022-07-29T13:27:53;25.40;70.20
7292;DHT22;3687;47.648;8.204;2022-07-29T13:30:20;25.40;70.10
7292;DHT22;3687;47.648;8.204;2022-07-29T13:32:46;25.40;70.20
7292;DHT22;3687;47.648;8.204;2022-07-29T13:35:12;25.40;70.20
7292;DHT22;3687;47.648;8.204;2022-07-29T13:37:39;25.40;70.20
7292;DHT22;3687;47.648;8.204;2022-07-29T13:40:08;25.40;70.60
7292;DHT22;3687;47.648;8.204;2022-07-29T13:42:34;25.40;70.30
7292;DHT22;3687;47.648;8.204;2022-07-29T13:45:00;25.40;70.20
7292;DHT22;3687;47.648;8.204;2022-07-29T13:47:27;25.30;70.30
7292;DHT22;3687;47.648;8.204;2022-07-29T13:49:52;25.40;70.30
7292;DHT22;3687;47.648;8.204;2022-07-29T13:52:19;25.40;70.30
7292;DHT22;3687;47.648;8.204;2022-07-29T13:54:44;25.30;70.30
7292;DHT22;3687;47.648;8.204;2022-07-29T13:57:11;25.30;70.20
7292;DHT22;3687;47.648;8.204;2022-07-29T13:59:37;25.30;70.20
7292;DHT22;3687;47.648;8.204;2022-07-29T14:02:03;25.30;70.20
7292;DHT22;3687;47.648;8.204;2022-07-29T14:04:28;25.30;70.20
7292;DHT22;3687;47.648;8.204;2022-07-29T14:06:54;25.30;70.10
7292;DHT22;3687;47.648;8.204;2022-07-29T14:09:19;25.30;69.90
7292;DHT22;3687;47.648;8.204;2022-07-29T14:11:45;25.30;69.80
7292;DHT22;3687;47.648;8.204;2022-07-29T14:14:11;25.20;69.50
7292;DHT22;3687;47.648;8.204;2022-07-29T14:16:37;25.20;69.50
7292;DHT22;3687;47.648;8.204;2022-07-29T14:19:02;25.30;69.70
7292;DHT22;3687;47.648;8.204;2022-07-29T14:21:28;25.30;69.70
7292;DHT22;3687;47.648;8.204;2022-07-29T14:23:54;25.30;69.70
7292;DHT22;3687;47.648;8.204;2022-07-29T14:26:20;25.30;69.60
7292;DHT22;3687;47.648;8.204;2022-07-29T14:28:46;25.20;69.20
7292;DHT22;3687;47.648;8.204;2022-07-29T14:31:12;25.20;69.50
7292;DHT22;3687;47.648;8.204;2022-07-29T14:33:38;25.20;69.50
7292;DHT22;3687;47.648;8.204;2022-07-29T14:36:04;25.20;69.50
7292;DHT22;3687;47.648;8.204;2022-07-29T14:38:29;25.20;69.30
7292;DHT22;3687;47.648;8.204;2022-07-29T14:40:55;25.30;69.30
7292;DHT22;3687;47.648;8.204;2022-07-29T14:43:20;25.30;69.40
7292;DHT22;3687;47.648;8.204;2022-07-29T14:45:46;25.30;69.20
7292;DHT22;3687;47.648;8.204;2022-07-29T14:48:11;25.30;69.20
7292;DHT22;3687;47.648;8.204;2022-07-29T14:50:37;25.20;69.30
7292;DHT22;3687;47.648;8.204;2022-07-29T14:53:03;25.20;69.30
7292;DHT22;3687;47.648;8.204;2022-07-29T14:55:29;25.20;69.40
7292;DHT22;3687;47.648;8.204;2022-07-29T14:57:55;25.20;69.60
7292;DHT22;3687;47.648;8.204;2022-07-29T15:00:20;25.20;69.70
7292;DHT22;3687;47.648;8.204;2022-07-29T15:02:47;25.20;69.70
7292;DHT22;3687;47.648;8.204;2022-07-29T15:05:13;25.10;69.80
7292;DHT22;3687;47.648;8.204;2022-07-29T15:07:38;25.20;70.00
7292;DHT22;3687;47.648;8.204;2022-07-29T15:10:04;25.10;70.00
7292;DHT22;3687;47.648;8.204;2022-07-29T15:12:31;25.10;70.10
7292;DHT22;3687;47.648;8.204;2022-07-29T15:14:56;25.10;70.10
7292;DHT22;3687;47.648;8.204;2022-07-29T15:17:22;25.00;70.30
7292;DHT22;3687;47.648;8.204;2022-07-29T15:19:47;25.00;70.40
7292;DHT22;3687;47.648;8.204;2022-07-29T15:22:13;25.00;70.50
7292;DHT22;3687;47.648;8.204;2022-07-29T15:24:39;25.00;70.50
7292;DHT22;3687;47.648;8.204;2022-07-29T15:27:04;25.00;70.50
7292;DHT22;3687;47.648;8.204;2022-07-29T15:29:30;25.00;70.50
7292;DHT22;3687;47.648;8.204;2022-07-29T15:31:55;24.90;70.50
7292;DHT22;3687;47.648;8.204;2022-07-29T15:34:21;24.90;70.80
7292;DHT22;3687;47.648;8.204;2022-07-29T15:36:49;24.90;70.60
7292;DHT22;3687;47.648;8.204;2022-07-29T15:39:15;24.90;70.60
7292;DHT22;3687;47.648;8.204;2022-07-29T15:41:41;24.90;70.50
7292;DHT22;3687;47.648;8.204;2022-07-29T15:44:06;24.90;70.40
7292;DHT22;3687;47.648;8.204;2022-07-29T15:46:32;24.90;70.50
7292;DHT22;3687;47.648;8.204;2022-07-29T15:49:16;24.80;70.50
7292;DHT22;3687;47.648;8.204;2022-07-29T15:51:41;24.80;70.40
7292;DHT22;3687;47.648;8.204;2022-07-29T15:54:07;24.80;70.50
7292;DHT22;3687;47.648;8.204;2022-07-29T15:56:33;24.80;70.50
7292;DHT22;3687;47.648;8.204;2022-07-29T15:58:58;24.90;70.50
7292;DHT22;3687;47.648;8.204;2022-07-29T16:01:24;24.90;70.40
7292;DHT22;3687;47.648;8.204;2022-07-29T16:03:50;24.90;70.40
7292;DHT22;3687;47.648;8.204;2022-07-29T16:06:16;24.80;70.20
7292;DHT22;3687;47.648;8.204;2022-07-29T16:08:41;24.80;70.30
7292;DHT22;3687;47.648;8.204;2022-07-29T16:11:07;24.90;70.50
7292;DHT22;3687;47.648;8.204;2022-07-29T16:13:33;24.80;70.40
7292;DHT22;3687;47.648;8.204;2022-07-29T16:15:58;24.90;70.50
7292;DHT22;3687;47.648;8.204;2022-07-29T16:18:24;24.90;70.50
7292;DHT22;3687;47.648;8.204;2022-07-29T16:20:49;24.90;70.40
7292;DHT22;3687;47.648;8.204;2022-07-29T16:23:15;24.90;70.40
7292;DHT22;3687;47.648;8.204;2022-07-29T16:25:41;24.90;70.40
7292;DHT22;3687;47.648;8.204;2022-07-29T16:28:07;24.90;70.50
7292;DHT22;3687;47.648;8.204;2022-07-29T16:30:34;24.90;70.60
7292;DHT22;3687;47.648;8.204;2022-07-29T16:33:00;24.80;70.80
7292;DHT22;3687;47.648;8.204;2022-07-29T16:35:25;24.80;71.70
7292;DHT22;3687;47.648;8.204;2022-07-29T16:37:51;24.80;73.10
7292;DHT22;3687;47.648;8.204;2022-07-29T16:40:17;24.80;74.20
7292;DHT22;3687;47.648;8.204;2022-07-29T16:42:42;24.70;75.80
7292;DHT22;3687;47.648;8.204;2022-07-29T16:45:08;24.70;77.30
7292;DHT22;3687;47.648;8.204;2022-07-29T16:47:34;24.70;78.50
7292;DHT22;3687;47.648;8.204;2022-07-29T16:49:59;24.70;79.20
7292;DHT22;3687;47.648;8.204;2022-07-29T16:52:25;24.70;79.60
7292;DHT22;3687;47.648;8.204;2022-07-29T16:54:50;24.70;80.10